createdAt,value
2022-11-16T00:04:12.081Z,5.13
2022-11-16T00:09:27.149Z,5.16
2022-11-16T00:14:33.078Z,5.17
2022-11-16T00:19:36.312Z,5.23
2022-11-16T00:24:39.912Z,5.29
2022-11-16T00:29:43.032Z,5.26
2022-11-16T00:34:46.409Z,5.22
2022-11-16T00:39:49.724Z,5.20
2022-11-16T00:44:53.320Z,5.19
2022-11-16T00:49:56.803Z,5.16
2022-11-16T00:55:00.230Z,5.12
2022-11-16T01:00:05.178Z,5.09
2022-11-16T01:05:10.403Z,5.07
2022-11-16T01:10:15.997Z,5.07
2022-11-16T01:15:21.607Z,5.02
2022-11-16T01:20:27.732Z,5.01
2022-11-16T01:25:31.211Z,4.99
2022-11-16T01:30:34.420Z,5.03
2022-11-16T01:35:37.672Z,5.03
2022-11-16T01:40:41.358Z,4.95
2022-11-16T01:45:45.404Z,4.91
2022-11-16T01:50:49.699Z,4.93
2022-11-16T01:55:53.504Z,4.96
2022-11-16T02:00:56.819Z,5.02
2022-11-16T02:06:23.406Z,5.09
2022-11-16T02:11:44.247Z,5.08
2022-11-16T02:16:53.717Z,5.11
2022-11-16T02:22:07.602Z,5.11
2022-11-16T02:27:33.791Z,5.11
2022-11-16T02:32:46.931Z,5.07
2022-11-16T02:37:59.863Z,5.03
2022-11-16T02:43:13.962Z,5.01
2022-11-16T02:48:26.737Z,4.99
2022-11-16T02:53:37.731Z,4.99
2022-11-16T02:58:41.123Z,4.90
2022-11-16T03:03:50.840Z,4.87
2022-11-16T03:09:06.322Z,4.83
2022-11-16T03:14:18.819Z,4.83
2022-11-16T03:19:41.776Z,4.84
2022-11-16T03:24:45.828Z,4.83
2022-11-16T03:29:59.079Z,4.83
2022-11-16T03:35:10.448Z,4.82
2022-11-16T03:40:16.385Z,4.84
2022-11-16T03:45:20.902Z,4.82
2022-11-16T03:50:24.912Z,4.78
2022-11-16T03:55:28.367Z,4.77
2022-11-16T04:00:32.056Z,4.80
2022-11-16T04:05:53.916Z,4.81
2022-11-16T04:11:15.951Z,4.77
2022-11-16T04:16:38.859Z,4.71
2022-11-16T04:22:07.596Z,4.73
2022-11-16T04:27:34.019Z,4.73
2022-11-16T04:32:56.272Z,4.78
2022-11-16T04:38:00.234Z,4.86
2022-11-16T04:43:05.162Z,4.90
2022-11-16T04:48:09.515Z,4.89
2022-11-16T04:53:13.708Z,4.84
2022-11-16T04:58:17.317Z,4.83
2022-11-16T05:03:21.495Z,4.83
2022-11-16T05:08:25.823Z,4.78
2022-11-16T05:13:29.329Z,4.77
2022-11-16T05:18:33.287Z,4.80
2022-11-16T05:23:56.185Z,4.83
2022-11-16T05:28:59.932Z,4.81
2022-11-16T05:34:03.799Z,4.79
2022-11-16T05:39:07.580Z,4.81
2022-11-16T05:44:11.343Z,4.82
2022-11-16T05:49:14.754Z,4.82
2022-11-16T05:54:27.889Z,4.86
2022-11-16T05:59:31.565Z,4.86
2022-11-16T06:04:34.965Z,4.86
2022-11-16T06:09:38.664Z,4.87
2022-11-16T06:14:42.270Z,4.92
2022-11-16T06:19:46.279Z,4.90
2022-11-16T06:24:49.846Z,4.90
2022-11-16T06:29:53.911Z,4.94
2022-11-16T06:34:57.295Z,4.96
2022-11-16T06:40:01.305Z,4.95
2022-11-16T06:45:05.930Z,4.92
2022-11-16T06:50:11.497Z,4.90
2022-11-16T06:55:16.332Z,4.93
2022-11-16T07:00:20.480Z,4.90
2022-11-16T07:05:24.208Z,4.86
2022-11-16T07:10:28.073Z,4.85
2022-11-16T07:15:34.150Z,4.86
2022-11-16T07:20:39.164Z,4.81
2022-11-16T07:25:47.270Z,4.76
2022-11-16T07:30:51.361Z,4.74
2022-11-16T07:35:54.979Z,4.79
2022-11-16T07:41:06.378Z,4.77
2022-11-16T07:51:39.145Z,4.84
2022-11-16T07:56:42.999Z,4.88
2022-11-16T08:01:50.102Z,4.90
2022-11-16T08:06:53.990Z,4.91
2022-11-16T08:11:57.665Z,4.95
2022-11-16T08:17:01.146Z,5.03
2022-11-16T08:22:04.650Z,5.11
2022-11-16T08:27:08.725Z,5.11
2022-11-16T08:32:12.395Z,5.13
2022-11-16T08:37:16.340Z,5.22
2022-11-16T08:42:20.477Z,5.25
2022-11-16T08:47:24.296Z,5.24
2022-11-16T08:52:27.710Z,5.23
2022-11-16T08:57:31.661Z,5.24
2022-11-16T09:02:35.526Z,5.23
2022-11-16T09:07:40.488Z,5.21
2022-11-16T09:12:44.734Z,5.19
2022-11-16T09:17:48.983Z,5.19
2022-11-16T09:22:52.571Z,5.22
2022-11-16T09:27:57.408Z,5.23
2022-11-16T09:33:01.501Z,5.21
2022-11-16T09:38:05.057Z,5.23
2022-11-16T09:43:27.906Z,5.23
2022-11-16T09:48:36.892Z,5.25
2022-11-16T09:54:07.725Z,5.26
2022-11-16T09:59:26.113Z,5.22
2022-11-16T10:04:39.355Z,5.16
2022-11-16T10:09:46.016Z,5.12
2022-11-16T10:14:53.807Z,5.07
2022-11-16T10:20:30.206Z,5.07
2022-11-16T10:26:04.614Z,5.08
2022-11-16T10:31:39.614Z,5.07
2022-11-16T10:36:44.866Z,5.08
2022-11-16T10:41:51.171Z,5.13
2022-11-16T10:47:22.814Z,5.22
2022-11-16T10:52:27.265Z,5.24
2022-11-16T10:58:04.998Z,5.29
2022-11-16T11:03:11.258Z,5.36
2022-11-16T11:08:26.684Z,5.39
2022-11-16T11:13:30.436Z,5.37
2022-11-16T11:18:35.079Z,5.37
2022-11-16T11:23:51.359Z,5.35
2022-11-16T11:28:56.680Z,5.34
2022-11-16T11:34:11.025Z,5.33
2022-11-16T11:39:21.615Z,5.31
2022-11-16T11:44:50.257Z,5.29
2022-11-16T11:50:22.175Z,5.26
2022-11-16T11:55:28.053Z,5.25
2022-11-16T12:00:59.541Z,5.27
2022-11-16T12:06:28.046Z,5.30
2022-11-16T12:11:42.493Z,5.34
2022-11-16T12:17:19.667Z,5.37
2022-11-16T12:22:58.519Z,5.38
2022-11-16T12:28:18.202Z,5.40
2022-11-16T12:33:47.296Z,5.42
2022-11-16T12:39:28.384Z,5.44
2022-11-16T12:44:59.089Z,5.43
2022-11-16T12:50:06.848Z,5.34
2022-11-16T12:55:40.528Z,5.30
2022-11-16T13:01:11.941Z,5.28
2022-11-16T13:06:44.233Z,5.24
2022-11-16T13:11:58.692Z,5.22
2022-11-16T13:17:05.414Z,5.18
2022-11-16T13:22:22.728Z,5.11
2022-11-16T13:27:32.420Z,5.03
2022-11-16T13:32:54.297Z,4.99
2022-11-16T13:38:01.210Z,4.94
2022-11-16T13:43:11.691Z,4.89
2022-11-16T13:48:25.973Z,4.83
2022-11-16T13:59:00.548Z,4.77
2022-11-16T14:04:44.717Z,4.72
2022-11-16T14:09:50.382Z,4.68
2022-11-16T14:15:20.744Z,4.66
2022-11-16T14:20:54.057Z,4.65
2022-11-16T14:26:48.301Z,4.62
2022-11-16T14:31:54.060Z,4.58
2022-11-16T14:36:59.189Z,4.57
2022-11-16T14:42:07.583Z,4.60
2022-11-16T14:47:29.925Z,4.60
2022-11-16T14:52:50.339Z,4.56
2022-11-16T14:58:20.198Z,4.59
2022-11-16T15:03:33.009Z,4.65
2022-11-16T15:09:04.162Z,4.61
2022-11-16T15:14:11.541Z,4.52
2022-11-16T15:19:16.954Z,4.42
2022-11-16T15:24:35.762Z,4.27
2022-11-16T15:29:40.691Z,4.10
2022-11-16T15:34:55.535Z,3.97
2022-11-16T15:40:01.857Z,3.90
2022-11-16T15:45:23.273Z,3.88
2022-11-16T15:50:28.434Z,3.85
2022-11-16T15:55:34.696Z,3.75
2022-11-16T16:00:38.740Z,3.70
2022-11-16T16:05:42.704Z,3.66
2022-11-16T16:10:59.585Z,3.62
2022-11-16T16:16:26.923Z,3.52
2022-11-16T16:21:43.413Z,3.41
2022-11-16T16:26:47.531Z,3.37
2022-11-16T16:31:51.874Z,3.29
2022-11-16T16:36:56.233Z,3.25
2022-11-16T16:42:00.890Z,3.18
2022-11-16T16:47:06.291Z,3.16
2022-11-16T16:52:13.902Z,3.18
2022-11-16T16:57:22.086Z,3.09
2022-11-16T17:02:31.253Z,3.05
2022-11-16T17:07:36.160Z,3.01
2022-11-16T17:12:43.713Z,2.94
2022-11-16T17:17:50.111Z,2.88
2022-11-16T17:23:00.656Z,2.87
2022-11-16T17:28:06.867Z,2.89
2022-11-16T17:33:11.140Z,2.87
2022-11-16T17:38:16.744Z,2.83
2022-11-16T17:43:20.778Z,2.80
2022-11-16T17:48:25.554Z,2.78
2022-11-16T17:53:32.640Z,2.75
2022-11-16T17:58:36.721Z,2.73
2022-11-16T18:03:40.902Z,2.71
2022-11-16T18:08:45.456Z,2.72
2022-11-16T18:13:54.677Z,2.71
2022-11-16T18:19:01.283Z,2.74
2022-11-16T18:24:07.050Z,2.76
2022-11-16T18:29:16.020Z,2.71
2022-11-16T18:34:21.663Z,2.67
2022-11-16T18:39:25.801Z,2.68
2022-11-16T18:44:31.216Z,2.68
2022-11-16T18:49:35.582Z,2.71
2022-11-16T18:54:40.397Z,2.71
2022-11-16T18:59:44.970Z,2.72
2022-11-16T19:04:49.744Z,2.73
2022-11-16T19:09:54.877Z,2.69
2022-11-16T19:14:59.690Z,2.69
2022-11-16T19:20:04.426Z,2.68
2022-11-16T19:25:10.632Z,2.65
2022-11-16T19:30:15.400Z,2.66
2022-11-16T19:35:20.439Z,2.64
2022-11-16T19:40:25.348Z,2.65
2022-11-16T19:45:29.819Z,2.67
2022-11-16T19:50:35.973Z,2.68
2022-11-16T19:55:41.614Z,2.69
2022-11-16T20:00:46.214Z,2.71
2022-11-16T20:05:50.686Z,2.74
2022-11-16T20:10:54.280Z,2.77
2022-11-16T20:16:02.072Z,2.76
2022-11-16T20:21:08.324Z,2.75
2022-11-16T20:26:15.888Z,2.75
2022-11-16T20:31:32.546Z,2.79
2022-11-16T20:36:37.541Z,2.82
2022-11-16T20:41:42.312Z,2.83
2022-11-16T20:46:46.663Z,2.82
2022-11-16T20:51:51.756Z,2.83
2022-11-16T20:56:56.932Z,2.83
2022-11-16T21:02:01.126Z,2.84
2022-11-16T21:07:04.707Z,2.86
2022-11-16T21:12:30.883Z,2.86
2022-11-16T21:17:34.636Z,2.88
2022-11-16T21:22:38.892Z,2.86
2022-11-16T21:27:43.198Z,2.83
2022-11-16T21:32:46.972Z,2.83
2022-11-16T21:37:50.465Z,2.80
2022-11-16T21:42:54.080Z,2.78
2022-11-16T21:47:58.630Z,2.78
2022-11-16T21:53:02.481Z,2.78
2022-11-16T21:58:06.666Z,2.77
2022-11-16T22:03:10.706Z,2.78
2022-11-16T22:08:14.635Z,2.80
2022-11-16T22:13:19.929Z,2.81
2022-11-16T22:18:24.005Z,2.80
2022-11-16T22:23:29.184Z,2.77
2022-11-16T22:28:33.921Z,2.77
2022-11-16T22:33:38.190Z,2.76
2022-11-16T22:38:42.217Z,2.77
2022-11-16T22:43:45.721Z,2.79
2022-11-16T22:48:49.147Z,2.79
2022-11-16T22:53:54.600Z,2.78
2022-11-16T22:58:58.786Z,2.78
2022-11-16T23:04:02.816Z,2.79
2022-11-16T23:09:06.751Z,2.83
2022-11-16T23:14:35.092Z,2.81
2022-11-16T23:19:57.296Z,2.82
2022-11-16T23:25:20.489Z,2.84
2022-11-16T23:30:24.506Z,2.84
2022-11-16T23:35:29.247Z,2.84
2022-11-16T23:40:37.553Z,2.83
2022-11-16T23:45:43.035Z,2.82
2022-11-16T23:50:50.178Z,2.82
2022-11-16T23:55:54.290Z,2.84
